Pinckneyville, Illinois
Current Conditions -  °F | °C
As of 12:35 AM on Thursday 27 Nov 2014 (Local Time) from KSAR Reporting Station
Light Snow Light Snow  
Wind Chill: 26°   Ceiling: 300
Heat Index: 32°   Visibility: 3mi
Dew Point: 32°   Wind: 7mph
Humidity: 99%   Direction: 330°NNW
Pressure: 30.2"   Gusts: NA
Location:  38.08°N, 89.38°W
Report Text: KSAR 270635Z AUTO 33006KT 3SM -SN OVC003 00/00 A3020 RMK AO2 T00001001
Loading
Personal Weather Stations






























Interactive Weather Map New forecast layout! Learn more

10-Day Weather Forecast

Advertisements
Track Severe Weather on mobile